< Typhoon 198717 1987 Season Typhoon 198719 >
Typhoon 198718 (JUNE)
General InformationTrack Information on Google MapsDetailed Wind InformationList of All Images || NewsDisaster Info.ResourceGoogle EarthGE AnimationAtom FeedGeoJSON
Detalied Best Track (Time Zone = UTC)
Year Month Day Hour Lat. Long. Pressure (hPa) Wind (kt) Class Image Chart
1987 9 28 00 17.5 157.0 1004 0 2 Image Chart
1987 9 28 06 19.6 157.8 1004 0 2 Image Chart
1987 9 28 12 21.3 157.5 1004 0 2 Image Chart
1987 9 28 18 22.7 156.6 1004 0 2 Image Chart
1987 9 29 00 23.9 155.8 1002 0 2 Image Chart
1987 9 29 06 25.2 154.7 1000 35 3 Image Chart
1987 9 29 12 26.4 153.2 998 35 3 Image Chart
1987 9 29 18 27.5 151.3 996 40 3 Image Chart
1987 9 30 00 28.3 149.3 994 45 3 Image Chart
1987 9 30 06 27.7 148.4 994 45 3 Image Chart
1987 9 30 12 28.4 148.8 992 45 3 Image Chart
1987 9 30 18 29.1 148.8 992 45 3 Image Chart
1987 10 1 00 29.8 149.1 992 45 3 Image Chart
1987 10 1 06 30.4 149.5 992 45 3 Image Chart
1987 10 1 12 31.0 150.4 994 40 3 Image Chart
1987 10 1 18 31.8 150.9 996 40 3 Image Chart
1987 10 2 00 32.5 151.3 1000 0 2 Image Chart
1987 10 2 06 33.5 153.0 1004 0 2 Image Chart
1987 10 2 12 34.0 155.0 1006 0 2 Image Chart
1987 10 2 18 34.5 157.0 1006 0 2 Image Chart
Japan Meteorological Agency Best Track Data | Correction Date : 1992-10-21
< Typhoon 198717 1987 Season Typhoon 198719 >

Help